Sct Santiago — V7NF7 — position and weather

sailwx.info

Track history (hours):
 
Tides and Currents Weather Stations Pressure Air Temp Water Temp Dewpoint Dewpoint Depression Visibility Wind Speed Wind Dir Waves Ship Positions

Sct Santiago

Last reported at 2016-Aug-27 07:07 UTC. Time now 2016-Aug-29 03:42 UTC.
Position N 01°11' E 103°38'.

; draft 9.6 m.

Type: Cargo ship. MMSI: 538002953.

Date/timePositionNaut miles runAvg speedWind from/ knotsBaromVisibWave heightAir tempDewpointWater temp
2016-Aug-27 07:07N 01°11' E 103°38'813.8
2016-Aug-27 06:32N 01°09' E 103°46'  
2016-Aug-22 11:06N 22°02' E 114°23'1115.2
2016-Aug-22 10:23N 22°13' E 114°27'24 2.0
2016-Aug-21 22:25N 22°34' E 114°16'22 9.5
2016-Aug-21 20:04N 22°14' E 114°27'713.2
2016-Aug-21 19:32N 22°08' E 114°24'2211.1
2016-Aug-21 17:33N 22°20' E 114°05'1110.9
2016-Aug-21 16:33N 22°24' E 113°54'2 0.2
2016-Aug-21 04:33N 22°26' E 113°53'12 8.6
2016-Aug-21 03:12N 22°21' E 114°05'20 2.3
2016-Aug-20 18:33N 22°08' E 114°20'6 5.5
2016-Aug-20 17:32N 22°04' E 114°25'1 0.8
2016-Aug-20 16:32N 22°03' E 114°25'2 1.6
2016-Aug-20 15:33N 22°05' E 114°24'4 3.8
2016-Aug-20 14:34N 22°05' E 114°28'  
Track history (hours):
 
Tides and Currents Weather Stations Pressure Air Temp Water Temp Dewpoint Dewpoint Depression Visibility Wind Speed Wind Dir Waves Ship Positions

Sct Santiago

Last reported at 2016-Aug-27 07:07 UTC. Time now 2016-Aug-29 03:42 UTC.
Position N 01°11' E 103°38'.

; draft 9.6 m.

Type: Cargo ship. MMSI: 538002953.

Date/timePositionNaut miles runAvg speedWind from/ knotsBaromVisibWave heightAir tempDewpointWater temp
2016-Aug-27 07:07N 01°11' E 103°38'813.8
2016-Aug-27 06:32N 01°09' E 103°46'  
2016-Aug-22 11:06N 22°02' E 114°23'1115.2
2016-Aug-22 10:23N 22°13' E 114°27'24 2.0
2016-Aug-21 22:25N 22°34' E 114°16'22 9.5
2016-Aug-21 20:04N 22°14' E 114°27'713.2
2016-Aug-21 19:32N 22°08' E 114°24'2211.1
2016-Aug-21 17:33N 22°20' E 114°05'1110.9
2016-Aug-21 16:33N 22°24' E 113°54'2 0.2
2016-Aug-21 04:33N 22°26' E 113°53'12 8.6
2016-Aug-21 03:12N 22°21' E 114°05'20 2.3
2016-Aug-20 18:33N 22°08' E 114°20'6 5.5
2016-Aug-20 17:32N 22°04' E 114°25'1 0.8
2016-Aug-20 16:32N 22°03' E 114°25'2 1.6
2016-Aug-20 15:33N 22°05' E 114°24'4 3.8
2016-Aug-20 14:34N 22°05' E 114°28'  

Dump ship's entire track history